Ivor, Virginia
Current Conditions -  °F | °C
As of 6:54 PM on Saturday 22 Nov 2014 (Local Time) from KAKQ Reporting Station
Clear Clear  
Wind Chill: 35°   Ceiling: Unl
Heat Index: 35°   Visibility: 7mi
Dew Point: 24°   Wind: 0mph
Humidity: 64%   Direction: NA
Pressure: 30.36"   Gusts: NA
Location:  36.9°N, 76.9°W
Report Text: KAKQ 222354Z AUTO 00000KT 7SM CLR 02/M04 A3036 RMK AO2 SLP284 T00171044 10106 20006 58017 TSNO $
Loading
Personal Weather Stations






























Interactive Weather Map New forecast layout! Learn more

10-Day Weather Forecast

Advertisements
Track Severe Weather on mobile